createdAt,value
2023-01-19T00:00:57.546Z,944.04
2023-01-19T00:03:57.445Z,944.0
2023-01-19T00:06:56.981Z,944.06
2023-01-19T00:09:57.408Z,944.06
2023-01-19T00:12:56.579Z,943.98
2023-01-19T00:15:56.684Z,944.07
2023-01-19T00:18:57.354Z,944.06
2023-01-19T00:21:57.763Z,944.06
2023-01-19T00:24:56.837Z,944.1
2023-01-19T00:27:57.212Z,944.18
2023-01-19T00:30:57.291Z,944.12
2023-01-19T00:33:57.483Z,944.1
2023-01-19T00:36:56.785Z,944.2
2023-01-19T00:39:57.715Z,944.18
2023-01-19T00:42:57.302Z,944.18
2023-01-19T00:45:57.897Z,944.24
2023-01-19T00:48:57.526Z,944.32
2023-01-19T00:51:57.560Z,944.27
2023-01-19T00:54:57.278Z,944.28
2023-01-19T00:57:57.125Z,944.23
2023-01-19T01:00:58.063Z,944.28
2023-01-19T01:03:57.324Z,944.39
2023-01-19T01:06:57.300Z,944.2
2023-01-19T01:09:57.449Z,944.39
2023-01-19T01:12:57.233Z,944.42
2023-01-19T01:15:57.812Z,944.32
2023-01-19T01:18:57.307Z,944.26
2023-01-19T01:21:57.297Z,944.36
2023-01-19T01:24:57.346Z,944.25
2023-01-19T01:27:57.378Z,944.29
2023-01-19T01:30:58.044Z,944.26
2023-01-19T01:33:57.145Z,944.32
2023-01-19T01:36:57.668Z,944.27
2023-01-19T01:39:57.105Z,944.36
2023-01-19T01:42:57.269Z,944.42
2023-01-19T01:45:57.325Z,944.35
2023-01-19T01:48:57.065Z,944.45
2023-01-19T01:51:57.566Z,944.52
2023-01-19T01:54:57.374Z,944.52
2023-01-19T01:57:57.765Z,944.52
2023-01-19T02:00:57.830Z,944.66
2023-01-19T02:03:56.977Z,944.45
2023-01-19T02:06:56.990Z,944.51
2023-01-19T02:09:57.855Z,944.55
2023-01-19T02:12:57.986Z,944.48
2023-01-19T02:15:57.504Z,944.59
2023-01-19T02:18:56.776Z,944.5
2023-01-19T02:21:57.729Z,944.52
2023-01-19T02:24:56.859Z,944.65
2023-01-19T02:27:57.642Z,944.62
2023-01-19T02:30:57.543Z,944.62
2023-01-19T02:33:57.467Z,944.63
2023-01-19T02:36:57.527Z,944.78
2023-01-19T02:39:57.788Z,944.72
2023-01-19T02:42:57.436Z,944.8
2023-01-19T02:45:57.312Z,944.71
2023-01-19T02:48:57.437Z,944.82
2023-01-19T02:51:57.479Z,944.81
2023-01-19T02:54:56.879Z,944.85
2023-01-19T02:57:57.385Z,944.97
2023-01-19T03:00:57.558Z,944.87
2023-01-19T03:03:57.236Z,944.81
2023-01-19T03:06:57.292Z,944.91
2023-01-19T03:09:57.638Z,944.88
2023-01-19T03:12:57.074Z,944.98
2023-01-19T03:15:57.413Z,944.96
2023-01-19T03:18:56.745Z,944.92
2023-01-19T03:21:56.951Z,944.88
2023-01-19T03:24:56.804Z,945.02
2023-01-19T03:27:56.883Z,945.02
2023-01-19T03:30:57.282Z,945.02
2023-01-19T03:33:57.487Z,945.08
2023-01-19T03:36:57.646Z,945.09
2023-01-19T03:39:57.279Z,945.06
2023-01-19T03:42:57.180Z,945.05
2023-01-19T03:45:57.248Z,945.09
2023-01-19T03:48:57.131Z,945.13
2023-01-19T03:51:57.436Z,945.17
2023-01-19T03:54:58.205Z,945.18
2023-01-19T03:57:57.340Z,945.17
2023-01-19T04:00:57.812Z,945.19
2023-01-19T04:03:57.058Z,945.19
2023-01-19T04:06:57.280Z,945.17
2023-01-19T04:09:57.309Z,945.18
2023-01-19T04:12:57.736Z,945.07
2023-01-19T04:15:57.481Z,945.16
2023-01-19T04:18:57.112Z,945.11
2023-01-19T04:21:58.046Z,945.1
2023-01-19T04:24:57.170Z,945.06
2023-01-19T04:27:57.667Z,945.08
2023-01-19T04:30:57.633Z,945.06
2023-01-19T04:33:56.951Z,945.09
2023-01-19T04:36:56.942Z,945.16
2023-01-19T04:39:57.445Z,945.06
2023-01-19T04:42:57.073Z,945.0
2023-01-19T04:45:57.091Z,944.97
2023-01-19T04:48:57.764Z,944.99
2023-01-19T04:51:56.741Z,944.97
2023-01-19T04:54:57.558Z,944.96
2023-01-19T04:57:57.555Z,945.02
2023-01-19T05:00:57.679Z,944.98
2023-01-19T05:03:57.379Z,945.12
2023-01-19T05:06:57.252Z,945.14
2023-01-19T05:09:57.354Z,945.26
2023-01-19T05:12:57.264Z,945.25
2023-01-19T05:15:56.876Z,945.22
2023-01-19T05:18:56.981Z,945.32
2023-01-19T05:21:57.313Z,945.39
2023-01-19T05:24:56.916Z,945.44
2023-01-19T05:27:57.162Z,945.35
2023-01-19T05:30:57.868Z,945.35
2023-01-19T05:33:58.397Z,945.33
2023-01-19T05:36:57.269Z,945.26
2023-01-19T05:39:57.423Z,945.35
2023-01-19T05:42:57.162Z,945.49
2023-01-19T05:45:56.920Z,945.5
2023-01-19T05:48:57.803Z,945.38
2023-01-19T05:51:57.009Z,945.53
2023-01-19T05:54:57.203Z,945.53
2023-01-19T05:57:58.078Z,945.58
2023-01-19T06:00:58.961Z,945.5
2023-01-19T06:03:57.686Z,945.46
2023-01-19T06:06:57.467Z,945.6
2023-01-19T06:09:58.180Z,945.65
2023-01-19T06:12:57.280Z,945.71
2023-01-19T06:15:57.547Z,945.74
2023-01-19T06:18:57.383Z,945.68
2023-01-19T06:21:58.210Z,945.71
2023-01-19T06:24:57.248Z,945.78
2023-01-19T06:27:57.763Z,945.68
2023-01-19T06:30:57.390Z,945.67
2023-01-19T06:33:58.130Z,945.62
2023-01-19T06:36:57.104Z,945.58
2023-01-19T06:39:57.938Z,945.6
2023-01-19T06:42:57.176Z,945.76
2023-01-19T06:45:58.222Z,945.84
2023-01-19T06:48:58.391Z,945.8
2023-01-19T06:51:57.544Z,945.88
2023-01-19T06:54:57.917Z,946.0
2023-01-19T06:57:57.889Z,946.02
2023-01-19T07:00:58.063Z,945.94
2023-01-19T07:03:57.906Z,946.01
2023-01-19T07:06:58.161Z,946.12
2023-01-19T07:09:57.756Z,946.04
2023-01-19T07:12:57.684Z,946.03
2023-01-19T07:15:57.671Z,946.05
2023-01-19T07:18:57.184Z,946.06
2023-01-19T07:21:57.114Z,946.06
2023-01-19T07:24:57.926Z,946.19
2023-01-19T07:27:56.977Z,946.13
2023-01-19T07:30:58.380Z,946.21
2023-01-19T07:33:57.169Z,946.23
2023-01-19T07:36:57.796Z,946.15
2023-01-19T07:39:57.665Z,946.22
2023-01-19T07:42:57.433Z,946.16
2023-01-19T07:45:57.656Z,946.16
2023-01-19T07:48:57.341Z,946.23
2023-01-19T07:51:57.215Z,946.26
2023-01-19T07:54:57.662Z,946.26
2023-01-19T07:57:57.313Z,946.32
2023-01-19T08:00:57.388Z,946.31
2023-01-19T08:03:56.524Z,946.37
2023-01-19T08:06:57.810Z,946.46
2023-01-19T08:09:57.171Z,946.43
2023-01-19T08:12:57.551Z,946.57
2023-01-19T08:15:58.044Z,946.6
2023-01-19T08:18:57.546Z,946.67
2023-01-19T08:21:57.455Z,946.58
2023-01-19T08:24:56.881Z,946.67
2023-01-19T08:27:57.012Z,946.65
2023-01-19T08:30:57.986Z,946.69
2023-01-19T08:33:57.711Z,946.72
2023-01-19T08:36:57.422Z,946.63
2023-01-19T08:39:57.137Z,946.64
2023-01-19T08:42:57.470Z,946.59
2023-01-19T08:45:56.886Z,946.66
2023-01-19T08:48:57.205Z,946.62
2023-01-19T08:51:57.221Z,946.55
2023-01-19T08:54:57.138Z,946.61
2023-01-19T08:57:57.848Z,946.58
2023-01-19T09:00:58.273Z,946.62
2023-01-19T09:03:56.620Z,946.55
2023-01-19T09:06:57.168Z,946.64
2023-01-19T09:09:57.522Z,946.62
2023-01-19T09:12:57.218Z,946.58
2023-01-19T09:15:58.073Z,946.54
2023-01-19T09:18:57.031Z,946.55
2023-01-19T09:21:57.458Z,946.61
2023-01-19T09:24:57.325Z,946.69
2023-01-19T09:27:56.966Z,946.7
2023-01-19T09:30:57.893Z,946.75
2023-01-19T09:33:57.616Z,946.72
2023-01-19T09:36:56.870Z,946.7
2023-01-19T09:39:57.247Z,946.64
2023-01-19T09:42:56.918Z,946.78
2023-01-19T09:45:56.819Z,946.82
2023-01-19T09:48:57.470Z,946.83
2023-01-19T09:51:56.790Z,946.88
2023-01-19T09:54:57.594Z,946.96
2023-01-19T09:57:56.936Z,946.85
2023-01-19T10:00:57.520Z,946.85
2023-01-19T10:03:56.980Z,946.91
2023-01-19T10:06:57.401Z,946.92
2023-01-19T10:09:58.298Z,946.95
2023-01-19T10:12:58.403Z,946.89
2023-01-19T10:15:58.067Z,946.94
2023-01-19T10:18:57.476Z,946.82
2023-01-19T10:21:56.969Z,946.88
2023-01-19T10:24:57.371Z,946.79
2023-01-19T10:27:57.037Z,946.77
2023-01-19T10:30:58.060Z,946.81
2023-01-19T10:33:57.489Z,946.76
2023-01-19T10:36:57.626Z,946.7
2023-01-19T10:39:57.010Z,946.73
2023-01-19T10:42:57.806Z,946.75
2023-01-19T10:45:57.899Z,946.8
2023-01-19T10:48:57.286Z,946.77
2023-01-19T10:51:58.141Z,946.75
2023-01-19T10:54:57.405Z,946.83
2023-01-19T10:57:57.043Z,946.78
2023-01-19T11:00:58.099Z,946.78
2023-01-19T11:04:16.365Z,946.75
2023-01-19T11:06:57.615Z,946.76
2023-01-19T11:09:57.478Z,946.83
2023-01-19T11:12:57.335Z,946.78
2023-01-19T11:15:57.623Z,946.71
2023-01-19T11:18:57.369Z,946.79
2023-01-19T11:21:57.836Z,946.72
2023-01-19T11:24:56.879Z,946.73
2023-01-19T11:27:57.202Z,946.76
2023-01-19T11:30:57.598Z,946.84
2023-01-19T11:33:58.395Z,946.78
2023-01-19T11:36:57.856Z,946.78
2023-01-19T11:39:57.211Z,946.77
2023-01-19T11:42:57.869Z,946.74
2023-01-19T11:45:57.262Z,946.67
2023-01-19T11:48:57.688Z,946.6
2023-01-19T11:51:57.504Z,946.65
2023-01-19T11:54:56.914Z,946.63
2023-01-19T11:57:57.361Z,946.64
2023-01-19T12:00:58.393Z,946.54
2023-01-19T12:03:57.709Z,946.5
2023-01-19T12:06:57.676Z,946.61
2023-01-19T12:09:57.891Z,946.58
2023-01-19T12:12:57.269Z,946.59
2023-01-19T12:15:57.475Z,946.68
2023-01-19T12:18:57.443Z,946.65
2023-01-19T12:21:57.453Z,946.63
2023-01-19T12:24:57.444Z,946.65
2023-01-19T12:27:57.255Z,946.56
2023-01-19T12:30:57.327Z,946.67
2023-01-19T12:33:57.292Z,946.54
2023-01-19T12:36:57.762Z,946.55
2023-01-19T12:39:57.667Z,946.51
2023-01-19T12:42:57.171Z,946.45
2023-01-19T12:45:57.393Z,946.44
2023-01-19T12:48:57.366Z,946.54
2023-01-19T12:51:57.088Z,946.59
2023-01-19T12:54:57.948Z,946.57
2023-01-19T12:57:57.597Z,946.56
2023-01-19T13:00:57.570Z,946.56
2023-01-19T13:03:57.255Z,946.5
2023-01-19T13:06:58.258Z,946.49
2023-01-19T13:09:57.459Z,946.47
2023-01-19T13:12:57.222Z,946.43
2023-01-19T13:15:57.850Z,946.5
2023-01-19T13:18:57.600Z,946.62
2023-01-19T13:21:57.257Z,946.56
2023-01-19T13:24:58.340Z,946.49
2023-01-19T13:27:57.351Z,946.47
2023-01-19T13:30:57.548Z,946.47
2023-01-19T13:33:57.056Z,946.44
2023-01-19T13:36:57.999Z,946.45
2023-01-19T13:39:57.233Z,946.53
2023-01-19T13:42:57.250Z,946.58
2023-01-19T13:45:58.240Z,946.63
2023-01-19T13:48:57.399Z,946.59
2023-01-19T13:51:57.717Z,946.59
2023-01-19T13:54:57.046Z,946.61
2023-01-19T13:57:57.508Z,946.65
2023-01-19T14:00:57.972Z,946.73
2023-01-19T14:03:57.318Z,946.68
2023-01-19T14:06:56.883Z,946.73
2023-01-19T14:09:57.897Z,946.69
2023-01-19T14:12:59.576Z,946.82
2023-01-19T14:15:57.760Z,946.84
2023-01-19T14:18:57.774Z,946.74
2023-01-19T14:21:56.992Z,946.75
2023-01-19T14:24:57.695Z,946.85
2023-01-19T14:27:57.846Z,946.85
2023-01-19T14:30:57.487Z,946.7
2023-01-19T14:33:57.967Z,946.84
2023-01-19T14:36:58.115Z,946.77
2023-01-19T14:39:58.203Z,946.8
2023-01-19T14:42:57.898Z,946.79
2023-01-19T14:45:57.474Z,946.84
2023-01-19T14:48:57.054Z,946.9
2023-01-19T14:51:57.431Z,946.91
2023-01-19T14:54:56.902Z,947.0
2023-01-19T14:57:57.238Z,946.94
2023-01-19T15:00:57.567Z,946.89
2023-01-19T15:03:58.007Z,946.88
2023-01-19T15:06:57.004Z,946.95
2023-01-19T15:09:57.944Z,947.0
2023-01-19T15:12:57.233Z,946.97
2023-01-19T15:15:57.979Z,946.91
2023-01-19T15:18:57.761Z,946.9
2023-01-19T15:21:56.924Z,946.96
2023-01-19T15:24:57.408Z,946.88
2023-01-19T15:27:57.847Z,946.95
2023-01-19T15:30:57.767Z,946.88
2023-01-19T15:33:57.069Z,946.92
2023-01-19T15:36:57.752Z,946.88
2023-01-19T15:39:57.017Z,946.85
2023-01-19T15:42:57.569Z,946.81
2023-01-19T15:45:57.571Z,946.89
2023-01-19T15:48:57.309Z,946.88
2023-01-19T15:51:56.917Z,946.9
2023-01-19T15:54:57.444Z,946.84
2023-01-19T15:57:57.399Z,946.85
2023-01-19T16:00:58.466Z,946.91
2023-01-19T16:03:57.860Z,946.82
2023-01-19T16:06:57.406Z,946.92
2023-01-19T16:09:57.541Z,947.03
2023-01-19T16:12:57.991Z,947.07
2023-01-19T16:15:57.283Z,947.01
2023-01-19T16:18:57.410Z,947.05
2023-01-19T16:21:57.660Z,947.01
2023-01-19T16:24:57.386Z,946.99
2023-01-19T16:27:56.941Z,947.09
2023-01-19T16:30:57.815Z,947.17
2023-01-19T16:33:57.643Z,947.01
2023-01-19T16:36:57.665Z,947.08
2023-01-19T16:39:57.640Z,947.02
2023-01-19T16:42:57.879Z,946.93
2023-01-19T16:45:58.149Z,946.95
2023-01-19T16:48:58.123Z,947.04
2023-01-19T16:52:02.908Z,946.96
2023-01-19T16:54:58.258Z,946.96
2023-01-19T16:57:58.109Z,946.97
2023-01-19T17:00:58.219Z,947.02
2023-01-19T17:03:58.452Z,947.04
2023-01-19T17:06:58.235Z,947.09
2023-01-19T17:09:57.521Z,947.01
2023-01-19T17:12:57.495Z,947.08
2023-01-19T17:15:57.426Z,947.1
2023-01-19T17:18:57.323Z,947.01
2023-01-19T17:21:57.919Z,947.02
2023-01-19T17:24:57.389Z,947.12
2023-01-19T17:27:57.563Z,947.1
2023-01-19T17:31:05.303Z,947.15
2023-01-19T17:33:58.134Z,947.19
2023-01-19T17:36:57.371Z,947.19
2023-01-19T17:39:57.866Z,947.19
2023-01-19T17:42:57.757Z,947.17
2023-01-19T17:45:58.051Z,947.22
2023-01-19T17:49:03.875Z,947.17
2023-01-19T17:51:58.139Z,947.14
2023-01-19T17:54:57.278Z,947.18
2023-01-19T17:57:59.624Z,947.15
2023-01-19T18:00:58.429Z,947.2
2023-01-19T18:03:57.931Z,947.19
2023-01-19T18:06:57.607Z,947.11
2023-01-19T18:10:00.179Z,947.15
2023-01-19T18:12:57.562Z,947.12
2023-01-19T18:15:57.571Z,947.16
2023-01-19T18:18:57.584Z,947.11
2023-01-19T18:21:57.441Z,947.11
2023-01-19T18:24:57.834Z,947.13
2023-01-19T18:27:58.417Z,947.27
2023-01-19T18:30:58.093Z,947.15
2023-01-19T18:33:57.943Z,947.26
2023-01-19T18:36:57.655Z,947.22
2023-01-19T18:39:58.009Z,947.3
2023-01-19T18:42:58.051Z,947.21
2023-01-19T18:45:57.612Z,947.2
2023-01-19T18:48:57.730Z,947.24
2023-01-19T18:51:58.119Z,947.21
2023-01-19T18:54:57.938Z,947.27
2023-01-19T18:57:57.680Z,947.21
2023-01-19T19:01:26.299Z,947.18
2023-01-19T19:03:57.843Z,947.18
2023-01-19T19:06:58.097Z,947.23
2023-01-19T19:09:56.883Z,947.23
2023-01-19T19:12:56.974Z,947.22
2023-01-19T19:15:57.498Z,947.14
2023-01-19T19:18:57.220Z,947.18
2023-01-19T19:21:57.467Z,947.22
2023-01-19T19:24:57.537Z,947.18
2023-01-19T19:27:56.971Z,947.18
2023-01-19T19:30:58.201Z,947.21
2023-01-19T19:33:57.518Z,947.21
2023-01-19T19:36:57.385Z,947.18
2023-01-19T19:39:58.314Z,947.18
2023-01-19T19:42:58.857Z,947.19
2023-01-19T19:45:57.908Z,947.31
2023-01-19T19:48:57.642Z,947.34
2023-01-19T19:51:57.549Z,947.29
2023-01-19T19:54:57.179Z,947.28
2023-01-19T19:57:57.549Z,947.29
2023-01-19T20:00:58.302Z,947.37
2023-01-19T20:03:57.708Z,947.42
2023-01-19T20:06:56.998Z,947.34
2023-01-19T20:09:57.706Z,947.25
2023-01-19T20:12:57.536Z,947.36
2023-01-19T20:15:57.452Z,947.28
2023-01-19T20:18:57.699Z,947.45
2023-01-19T20:21:57.672Z,947.34
2023-01-19T20:24:57.783Z,947.38
2023-01-19T20:27:57.850Z,947.39
2023-01-19T20:30:58.111Z,947.42
2023-01-19T20:33:57.021Z,947.43
2023-01-19T20:36:57.533Z,947.46
2023-01-19T20:39:57.521Z,947.38
2023-01-19T20:42:57.441Z,947.45
2023-01-19T20:45:57.885Z,947.39
2023-01-19T20:48:57.467Z,947.43
2023-01-19T20:51:57.451Z,947.44
2023-01-19T20:54:57.380Z,947.53
2023-01-19T20:57:57.087Z,947.41
2023-01-19T21:00:58.073Z,947.49
2023-01-19T21:03:57.631Z,947.53
2023-01-19T21:06:57.080Z,947.48
2023-01-19T21:09:57.969Z,947.55
2023-01-19T21:12:57.155Z,947.54
2023-01-19T21:15:57.648Z,947.55
2023-01-19T21:18:58.008Z,947.57
2023-01-19T21:21:57.883Z,947.65
2023-01-19T21:24:58.001Z,947.68
2023-01-19T21:27:57.488Z,947.72
2023-01-19T21:30:57.486Z,947.72
2023-01-19T21:33:57.561Z,947.75
2023-01-19T21:36:57.709Z,947.75
2023-01-19T21:39:57.717Z,947.79
2023-01-19T21:42:56.651Z,947.83
2023-01-19T21:45:58.061Z,947.76
2023-01-19T21:48:57.660Z,947.82
2023-01-19T21:51:57.385Z,947.78
2023-01-19T21:54:57.978Z,947.85
2023-01-19T21:57:57.292Z,947.78
2023-01-19T22:00:58.137Z,947.88
2023-01-19T22:03:57.444Z,947.79
2023-01-19T22:06:56.913Z,947.88
2023-01-19T22:09:57.327Z,947.85
2023-01-19T22:12:57.565Z,947.89
2023-01-19T22:15:58.253Z,948.0
2023-01-19T22:18:57.209Z,947.98
2023-01-19T22:21:57.410Z,947.99
2023-01-19T22:24:57.816Z,947.92
2023-01-19T22:27:57.307Z,947.96
2023-01-19T22:30:57.370Z,947.92
2023-01-19T22:33:57.544Z,947.89
2023-01-19T22:36:57.150Z,948.03
2023-01-19T22:39:56.966Z,947.97
2023-01-19T22:42:57.524Z,948.06
2023-01-19T22:45:57.195Z,947.99
2023-01-19T22:48:57.440Z,947.96
2023-01-19T22:51:58.177Z,947.99
2023-01-19T22:54:57.506Z,948.02
2023-01-19T22:57:57.968Z,948.01
2023-01-19T23:00:57.845Z,948.02
2023-01-19T23:03:56.796Z,947.91
2023-01-19T23:06:56.897Z,947.95
2023-01-19T23:09:57.348Z,948.01
2023-01-19T23:12:57.508Z,947.95
2023-01-19T23:15:58.160Z,948.01
2023-01-19T23:18:57.113Z,948.12
2023-01-19T23:21:58.096Z,948.05
2023-01-19T23:24:56.824Z,948.13
2023-01-19T23:27:57.036Z,948.03
2023-01-19T23:30:58.288Z,948.04
2023-01-19T23:33:57.131Z,948.07
2023-01-19T23:36:57.294Z,948.16
2023-01-19T23:39:57.876Z,948.13
2023-01-19T23:42:57.104Z,948.14
2023-01-19T23:45:56.957Z,948.26
2023-01-19T23:48:56.967Z,948.22
2023-01-19T23:51:56.959Z,948.2
2023-01-19T23:54:57.027Z,948.29
2023-01-19T23:57:57.762Z,948.35
